Aviation Digital Data Service (ADDS)

Output produced by METARs form (1653 UTC 20 January 2019)
found at http://www.aviationweather.gov/metar/data/
 
MUSC 201100Z 2012/2112 23003KT 9000 SCT020 
     BECMG 2015/2017 30010KT 
     TEMPO 2018/2024 5000 SHRA FEW018CB BKN020
       
MUCU 201100Z 2012/2112 09005KT 9000 SCT020 
     BECMG 2015/2017 18010KT 
     BECMG 2101/2103 VRB03KT
       
MUHG 201100Z 2012/2112 16005KT 9000 SCT020 
     TEMPO 2012/2013 2000 BR 
     BECMG 2014/2016 25010KT 
     BECMG 2101/2103 VRB03KT
       
TAF MUGM 2015/2115 VRB05KT 9999 FEW100 QNH2998INS 
     BECMG 2017/2019 12012KT FEW030 FEW100 QNH2994INS 
     BECMG 2102/2104 34008KT SCT030 QNH2998INS T28/2020Z T20/2112Z FN00196
       
MUCM 201100Z 2012/2112 23003KT 9000 SCT020 
     TEMPO 2012/2013 2000 BR 
     BECMG 2014/2016 24010KT 
     BECMG 2101/2103 VRB03KT
       
MUCF 201100Z 2012/2024 16006KT 9000 SCT020 
     TEMPO 2017/2024 5000 SHRA FEW018CB BKN020
       
MUCC 201100Z 2012/2112 19004KT 9000 SCT020 
     BECMG 2015/2017 31012KT 
     TEMPO 2018/2024 5000 SHRA FEW018CB BKN020
       
AMD MUHA 201600Z 2016/2112 33008KT 9000 SCT025 OVC060 
     TEMPO 2016/2018 3000 SHRA FEW012CB BKN015
       
MUVR 201100Z 2012/2112 19005KT 9000 SCT020 
     BECMG 2013/2015 34012KT 
     TEMPO 2016/2024 5000 SHRA FEW018CB BKN020
       
MUCL 201100Z 2012/2024 19009KT 9000 SCT020 
     TEMPO 2014/2019 5000 SHRA FEW018CB BKN020